sensor_id;sensor_type;location;lat;lon;timestamp;P1;durP1;ratioP1;P2;durP2;ratioP2
31872;SDS011;22407;42.820;23.374;2022-07-18T00:00:47;6.33;;;1.80;;
31872;SDS011;22407;42.820;23.374;2022-07-18T00:03:16;5.47;;;1.80;;
31872;SDS011;22407;42.820;23.374;2022-07-18T00:05:45;6.50;;;1.77;;
31872;SDS011;22407;42.820;23.374;2022-07-18T00:08:14;5.15;;;1.70;;
31872;SDS011;22407;42.820;23.374;2022-07-18T00:10:43;5.80;;;1.85;;
31872;SDS011;22407;42.820;23.374;2022-07-18T00:13:12;6.03;;;1.73;;
31872;SDS011;22407;42.820;23.374;2022-07-18T00:15:41;5.12;;;1.80;;
31872;SDS011;22407;42.820;23.374;2022-07-18T00:18:10;5.30;;;1.87;;
31872;SDS011;22407;42.820;23.374;2022-07-18T00:20:38;4.70;;;1.60;;
31872;SDS011;22407;42.820;23.374;2022-07-18T00:23:07;5.10;;;1.60;;
31872;SDS011;22407;42.820;23.374;2022-07-18T00:25:36;6.27;;;1.73;;
31872;SDS011;22407;42.820;23.374;2022-07-18T00:28:05;4.83;;;1.87;;
31872;SDS011;22407;42.820;23.374;2022-07-18T00:30:34;5.08;;;1.70;;
31872;SDS011;22407;42.820;23.374;2022-07-18T00:33:03;5.85;;;1.70;;
31872;SDS011;22407;42.820;23.374;2022-07-18T00:35:33;6.75;;;2.00;;
31872;SDS011;22407;42.820;23.374;2022-07-18T00:38:02;5.10;;;1.60;;
31872;SDS011;22407;42.820;23.374;2022-07-18T00:40:31;5.28;;;1.85;;
31872;SDS011;22407;42.820;23.374;2022-07-18T00:43:01;5.17;;;1.90;;
31872;SDS011;22407;42.820;23.374;2022-07-18T00:45:30;8.25;;;1.90;;
31872;SDS011;22407;42.820;23.374;2022-07-18T00:48:04;7.33;;;2.15;;
31872;SDS011;22407;42.820;23.374;2022-07-18T00:50:35;5.10;;;1.83;;
31872;SDS011;22407;42.820;23.374;2022-07-18T00:53:04;4.85;;;1.50;;
31872;SDS011;22407;42.820;23.374;2022-07-18T00:55:35;5.15;;;1.70;;
31872;SDS011;22407;42.820;23.374;2022-07-18T00:58:13;5.12;;;1.80;;
31872;SDS011;22407;42.820;23.374;2022-07-18T01:00:37;5.78;;;1.82;;
31872;SDS011;22407;42.820;23.374;2022-07-18T01:03:25;6.27;;;1.80;;
31872;SDS011;22407;42.820;23.374;2022-07-18T01:05:55;7.80;;;1.87;;
31872;SDS011;22407;42.820;23.374;2022-07-18T01:08:24;5.60;;;1.50;;
31872;SDS011;22407;42.820;23.374;2022-07-18T01:10:53;4.70;;;1.40;;
31872;SDS011;22407;42.820;23.374;2022-07-18T01:13:22;5.17;;;1.50;;
31872;SDS011;22407;42.820;23.374;2022-07-18T01:15:50;5.30;;;1.77;;
31872;SDS011;22407;42.820;23.374;2022-07-18T01:18:19;4.83;;;1.60;;
31872;SDS011;22407;42.820;23.374;2022-07-18T01:20:49;4.92;;;1.65;;
31872;SDS011;22407;42.820;23.374;2022-07-18T01:23:18;4.55;;;1.52;;
31872;SDS011;22407;42.820;23.374;2022-07-18T01:25:47;5.60;;;1.70;;
31872;SDS011;22407;42.820;23.374;2022-07-18T01:28:16;5.73;;;1.50;;
31872;SDS011;22407;42.820;23.374;2022-07-18T01:30:45;4.85;;;1.60;;
31872;SDS011;22407;42.820;23.374;2022-07-18T01:33:14;4.75;;;1.40;;
31872;SDS011;22407;42.820;23.374;2022-07-18T01:35:43;4.50;;;1.45;;
31872;SDS011;22407;42.820;23.374;2022-07-18T01:38:12;4.33;;;1.75;;
31872;SDS011;22407;42.820;23.374;2022-07-18T01:40:41;4.73;;;1.53;;
31872;SDS011;22407;42.820;23.374;2022-07-18T01:43:09;5.40;;;2.05;;
31872;SDS011;22407;42.820;23.374;2022-07-18T01:45:38;5.10;;;1.65;;
31872;SDS011;22407;42.820;23.374;2022-07-18T01:48:07;5.45;;;2.12;;
31872;SDS011;22407;42.820;23.374;2022-07-18T01:50:36;5.42;;;1.57;;
31872;SDS011;22407;42.820;23.374;2022-07-18T01:53:05;4.70;;;1.60;;
31872;SDS011;22407;42.820;23.374;2022-07-18T01:55:34;5.15;;;1.72;;
31872;SDS011;22407;42.820;23.374;2022-07-18T01:58:03;4.67;;;1.90;;
31872;SDS011;22407;42.820;23.374;2022-07-18T02:00:33;6.00;;;2.25;;
31872;SDS011;22407;42.820;23.374;2022-07-18T02:03:02;5.42;;;1.77;;
31872;SDS011;22407;42.820;23.374;2022-07-18T02:05:31;5.80;;;1.70;;
31872;SDS011;22407;42.820;23.374;2022-07-18T02:08:00;5.05;;;2.05;;
31872;SDS011;22407;42.820;23.374;2022-07-18T02:10:29;4.90;;;1.70;;
31872;SDS011;22407;42.820;23.374;2022-07-18T02:12:58;5.05;;;1.75;;
31872;SDS011;22407;42.820;23.374;2022-07-18T02:15:27;5.10;;;1.80;;
31872;SDS011;22407;42.820;23.374;2022-07-18T02:17:56;5.23;;;1.73;;
31872;SDS011;22407;42.820;23.374;2022-07-18T02:20:25;4.45;;;1.60;;
31872;SDS011;22407;42.820;23.374;2022-07-18T02:22:54;5.87;;;1.70;;
31872;SDS011;22407;42.820;23.374;2022-07-18T02:25:23;5.00;;;1.70;;
31872;SDS011;22407;42.820;23.374;2022-07-18T02:27:52;4.70;;;1.75;;
31872;SDS011;22407;42.820;23.374;2022-07-18T02:30:21;5.10;;;1.70;;
31872;SDS011;22407;42.820;23.374;2022-07-18T02:32:50;5.00;;;1.80;;
31872;SDS011;22407;42.820;23.374;2022-07-18T02:35:19;5.37;;;1.82;;
31872;SDS011;22407;42.820;23.374;2022-07-18T02:37:47;4.75;;;1.70;;
31872;SDS011;22407;42.820;23.374;2022-07-18T02:40:16;4.17;;;1.40;;
31872;SDS011;22407;42.820;23.374;2022-07-18T02:42:45;5.20;;;1.80;;
31872;SDS011;22407;42.820;23.374;2022-07-18T02:45:14;5.15;;;1.87;;
31872;SDS011;22407;42.820;23.374;2022-07-18T02:47:43;5.78;;;1.40;;
31872;SDS011;22407;42.820;23.374;2022-07-18T02:50:12;4.50;;;1.90;;
31872;SDS011;22407;42.820;23.374;2022-07-18T02:52:41;4.90;;;1.85;;
31872;SDS011;22407;42.820;23.374;2022-07-18T02:55:12;5.47;;;1.70;;
31872;SDS011;22407;42.820;23.374;2022-07-18T02:57:42;5.60;;;1.35;;
31872;SDS011;22407;42.820;23.374;2022-07-18T03:00:12;4.87;;;1.42;;
31872;SDS011;22407;42.820;23.374;2022-07-18T03:02:42;5.47;;;1.75;;
31872;SDS011;22407;42.820;23.374;2022-07-18T03:05:12;6.25;;;1.80;;
31872;SDS011;22407;42.820;23.374;2022-07-18T03:07:41;5.83;;;1.50;;
31872;SDS011;22407;42.820;23.374;2022-07-18T03:10:10;5.17;;;1.37;;
31872;SDS011;22407;42.820;23.374;2022-07-18T03:12:42;5.05;;;1.80;;
31872;SDS011;22407;42.820;23.374;2022-07-18T03:15:11;4.45;;;1.30;;
31872;SDS011;22407;42.820;23.374;2022-07-18T03:17:40;5.05;;;1.62;;
31872;SDS011;22407;42.820;23.374;2022-07-18T03:20:09;5.07;;;1.57;;
31872;SDS011;22407;42.820;23.374;2022-07-18T03:22:38;4.92;;;1.40;;
31872;SDS011;22407;42.820;23.374;2022-07-18T03:25:07;8.65;;;1.57;;
31872;SDS011;22407;42.820;23.374;2022-07-18T03:27:36;5.37;;;1.70;;
31872;SDS011;22407;42.820;23.374;2022-07-18T03:30:05;5.60;;;1.30;;
31872;SDS011;22407;42.820;23.374;2022-07-18T03:32:35;5.23;;;1.77;;
31872;SDS011;22407;42.820;23.374;2022-07-18T03:35:04;4.40;;;1.67;;
31872;SDS011;22407;42.820;23.374;2022-07-18T03:37:34;6.53;;;1.80;;
31872;SDS011;22407;42.820;23.374;2022-07-18T03:40:03;6.05;;;1.90;;
31872;SDS011;22407;42.820;23.374;2022-07-18T03:42:33;4.92;;;1.87;;
31872;SDS011;22407;42.820;23.374;2022-07-18T03:45:03;6.50;;;1.80;;
31872;SDS011;22407;42.820;23.374;2022-07-18T03:47:33;5.05;;;1.67;;
31872;SDS011;22407;42.820;23.374;2022-07-18T03:50:02;5.33;;;1.80;;
31872;SDS011;22407;42.820;23.374;2022-07-18T03:52:31;6.58;;;2.00;;
31872;SDS011;22407;42.820;23.374;2022-07-18T03:55:00;5.22;;;1.85;;
31872;SDS011;22407;42.820;23.374;2022-07-18T03:57:30;4.50;;;1.60;;
31872;SDS011;22407;42.820;23.374;2022-07-18T03:59:59;5.05;;;1.60;;
31872;SDS011;22407;42.820;23.374;2022-07-18T04:02:27;6.83;;;1.95;;
31872;SDS011;22407;42.820;23.374;2022-07-18T04:04:56;4.75;;;1.95;;
31872;SDS011;22407;42.820;23.374;2022-07-18T04:07:25;4.72;;;1.77;;
31872;SDS011;22407;42.820;23.374;2022-07-18T04:09:54;5.10;;;1.77;;
31872;SDS011;22407;42.820;23.374;2022-07-18T04:12:23;4.85;;;1.57;;
31872;SDS011;22407;42.820;23.374;2022-07-18T04:14:52;8.10;;;1.75;;
31872;SDS011;22407;42.820;23.374;2022-07-18T04:17:21;9.48;;;2.35;;
31872;SDS011;22407;42.820;23.374;2022-07-18T04:19:50;7.33;;;1.62;;
31872;SDS011;22407;42.820;23.374;2022-07-18T04:22:19;5.93;;;2.27;;
31872;SDS011;22407;42.820;23.374;2022-07-18T04:24:48;8.75;;;2.10;;
31872;SDS011;22407;42.820;23.374;2022-07-18T04:27:16;6.30;;;2.40;;
31872;SDS011;22407;42.820;23.374;2022-07-18T04:29:45;9.05;;;2.87;;
31872;SDS011;22407;42.820;23.374;2022-07-18T04:32:14;8.70;;;3.10;;
31872;SDS011;22407;42.820;23.374;2022-07-18T04:34:43;7.43;;;2.80;;
31872;SDS011;22407;42.820;23.374;2022-07-18T04:37:12;7.97;;;2.80;;
31872;SDS011;22407;42.820;23.374;2022-07-18T04:39:42;7.33;;;3.10;;
31872;SDS011;22407;42.820;23.374;2022-07-18T04:42:10;6.12;;;2.75;;
31872;SDS011;22407;42.820;23.374;2022-07-18T04:44:39;7.28;;;2.62;;
31872;SDS011;22407;42.820;23.374;2022-07-18T04:47:08;6.70;;;2.83;;
31872;SDS011;22407;42.820;23.374;2022-07-18T04:49:37;7.50;;;2.67;;
31872;SDS011;22407;42.820;23.374;2022-07-18T04:52:06;6.28;;;2.27;;
31872;SDS011;22407;42.820;23.374;2022-07-18T04:54:35;6.22;;;2.22;;
31872;SDS011;22407;42.820;23.374;2022-07-18T04:57:04;5.33;;;2.10;;
31872;SDS011;22407;42.820;23.374;2022-07-18T04:59:33;6.33;;;2.07;;
31872;SDS011;22407;42.820;23.374;2022-07-18T05:02:01;6.58;;;2.35;;
31872;SDS011;22407;42.820;23.374;2022-07-18T05:04:30;5.20;;;1.98;;
31872;SDS011;22407;42.820;23.374;2022-07-18T05:06:59;8.73;;;2.58;;
31872;SDS011;22407;42.820;23.374;2022-07-18T05:09:28;9.65;;;2.42;;
31872;SDS011;22407;42.820;23.374;2022-07-18T05:11:57;6.87;;;2.40;;
31872;SDS011;22407;42.820;23.374;2022-07-18T05:14:26;6.58;;;2.70;;
31872;SDS011;22407;42.820;23.374;2022-07-18T05:16:55;46.85;;;24.27;;
31872;SDS011;22407;42.820;23.374;2022-07-18T05:19:24;40.52;;;21.68;;
31872;SDS011;22407;42.820;23.374;2022-07-18T05:21:53;8.00;;;3.70;;
31872;SDS011;22407;42.820;23.374;2022-07-18T05:24:21;8.70;;;3.00;;
31872;SDS011;22407;42.820;23.374;2022-07-18T05:26:50;8.28;;;3.10;;
31872;SDS011;22407;42.820;23.374;2022-07-18T05:29:19;7.60;;;3.10;;
31872;SDS011;22407;42.820;23.374;2022-07-18T05:31:48;8.55;;;2.70;;
31872;SDS011;22407;42.820;23.374;2022-07-18T05:34:17;9.30;;;2.60;;
31872;SDS011;22407;42.820;23.374;2022-07-18T05:36:46;6.90;;;2.63;;
31872;SDS011;22407;42.820;23.374;2022-07-18T05:39:15;6.08;;;2.40;;
31872;SDS011;22407;42.820;23.374;2022-07-18T05:41:44;5.90;;;2.10;;
31872;SDS011;22407;42.820;23.374;2022-07-18T05:44:13;6.92;;;2.15;;
31872;SDS011;22407;42.820;23.374;2022-07-18T05:46:42;5.78;;;2.02;;
31872;SDS011;22407;42.820;23.374;2022-07-18T05:49:10;6.00;;;2.07;;
31872;SDS011;22407;42.820;23.374;2022-07-18T05:51:40;11.03;;;2.52;;
31872;SDS011;22407;42.820;23.374;2022-07-18T05:54:09;8.90;;;2.72;;
31872;SDS011;22407;42.820;23.374;2022-07-18T05:56:42;6.22;;;2.40;;
31872;SDS011;22407;42.820;23.374;2022-07-18T05:59:11;6.17;;;2.25;;
31872;SDS011;22407;42.820;23.374;2022-07-18T06:01:40;8.33;;;2.43;;
31872;SDS011;22407;42.820;23.374;2022-07-18T06:04:09;12.95;;;2.72;;
31872;SDS011;22407;42.820;23.374;2022-07-18T06:06:38;6.92;;;2.30;;
31872;SDS011;22407;42.820;23.374;2022-07-18T06:09:07;8.85;;;2.90;;
31872;SDS011;22407;42.820;23.374;2022-07-18T06:11:36;7.15;;;2.22;;
31872;SDS011;22407;42.820;23.374;2022-07-18T06:14:05;6.57;;;2.00;;
31872;SDS011;22407;42.820;23.374;2022-07-18T06:16:34;7.12;;;2.37;;
31872;SDS011;22407;42.820;23.374;2022-07-18T06:19:03;7.05;;;2.30;;
31872;SDS011;22407;42.820;23.374;2022-07-18T06:21:32;7.37;;;2.30;;
31872;SDS011;22407;42.820;23.374;2022-07-18T06:24:01;6.70;;;2.33;;
31872;SDS011;22407;42.820;23.374;2022-07-18T06:26:30;9.20;;;2.23;;
31872;SDS011;22407;42.820;23.374;2022-07-18T06:28:59;9.38;;;2.50;;
31872;SDS011;22407;42.820;23.374;2022-07-18T06:31:28;7.58;;;2.45;;
31872;SDS011;22407;42.820;23.374;2022-07-18T06:33:57;7.40;;;2.52;;
31872;SDS011;22407;42.820;23.374;2022-07-18T06:36:25;8.53;;;2.65;;
31872;SDS011;22407;42.820;23.374;2022-07-18T06:38:55;8.10;;;2.23;;
31872;SDS011;22407;42.820;23.374;2022-07-18T06:41:24;6.70;;;1.95;;
31872;SDS011;22407;42.820;23.374;2022-07-18T06:43:53;7.40;;;2.12;;
31872;SDS011;22407;42.820;23.374;2022-07-18T06:46:21;7.15;;;1.50;;
31872;SDS011;22407;42.820;23.374;2022-07-18T06:48:51;4.12;;;1.10;;
31872;SDS011;22407;42.820;23.374;2022-07-18T06:51:20;7.70;;;1.57;;
31872;SDS011;22407;42.820;23.374;2022-07-18T06:53:49;4.75;;;1.30;;
31872;SDS011;22407;42.820;23.374;2022-07-18T06:56:18;5.12;;;1.45;;
31872;SDS011;22407;42.820;23.374;2022-07-18T06:58:47;7.67;;;1.20;;
31872;SDS011;22407;42.820;23.374;2022-07-18T07:01:20;7.33;;;1.35;;
31872;SDS011;22407;42.820;23.374;2022-07-18T07:03:49;5.43;;;1.50;;
31872;SDS011;22407;42.820;23.374;2022-07-18T07:06:18;4.72;;;1.30;;
31872;SDS011;22407;42.820;23.374;2022-07-18T07:08:47;4.92;;;1.02;;
31872;SDS011;22407;42.820;23.374;2022-07-18T07:11:16;4.53;;;1.30;;
31872;SDS011;22407;42.820;23.374;2022-07-18T07:13:45;4.90;;;1.30;;
31872;SDS011;22407;42.820;23.374;2022-07-18T07:16:14;4.60;;;1.20;;
31872;SDS011;22407;42.820;23.374;2022-07-18T07:18:42;5.25;;;1.60;;
31872;SDS011;22407;42.820;23.374;2022-07-18T07:21:11;4.25;;;1.35;;
31872;SDS011;22407;42.820;23.374;2022-07-18T07:23:40;8.65;;;1.60;;
31872;SDS011;22407;42.820;23.374;2022-07-18T07:26:09;5.25;;;1.22;;
31872;SDS011;22407;42.820;23.374;2022-07-18T07:28:38;4.70;;;1.43;;
31872;SDS011;22407;42.820;23.374;2022-07-18T07:31:07;4.40;;;1.25;;
31872;SDS011;22407;42.820;23.374;2022-07-18T07:33:36;5.60;;;1.20;;
31872;SDS011;22407;42.820;23.374;2022-07-18T07:36:05;5.15;;;1.35;;
31872;SDS011;22407;42.820;23.374;2022-07-18T07:38:34;5.17;;;1.30;;
31872;SDS011;22407;42.820;23.374;2022-07-18T07:41:03;4.50;;;1.30;;
31872;SDS011;22407;42.820;23.374;2022-07-18T07:43:32;4.65;;;1.30;;
31872;SDS011;22407;42.820;23.374;2022-07-18T07:46:03;5.22;;;1.50;;
31872;SDS011;22407;42.820;23.374;2022-07-18T07:48:32;8.35;;;1.22;;
31872;SDS011;22407;42.820;23.374;2022-07-18T07:51:01;4.40;;;1.30;;
31872;SDS011;22407;42.820;23.374;2022-07-18T07:53:30;6.33;;;1.40;;
31872;SDS011;22407;42.820;23.374;2022-07-18T07:55:59;4.62;;;1.32;;
31872;SDS011;22407;42.820;23.374;2022-07-18T07:58:28;4.40;;;1.20;;
31872;SDS011;22407;42.820;23.374;2022-07-18T08:00:57;4.67;;;1.22;;
31872;SDS011;22407;42.820;23.374;2022-07-18T08:03:26;4.75;;;1.55;;
31872;SDS011;22407;42.820;23.374;2022-07-18T08:05:55;4.10;;;1.20;;
31872;SDS011;22407;42.820;23.374;2022-07-18T08:08:23;7.05;;;1.40;;
31872;SDS011;22407;42.820;23.374;2022-07-18T08:10:52;5.40;;;1.35;;
31872;SDS011;22407;42.820;23.374;2022-07-18T08:13:21;4.20;;;1.57;;
31872;SDS011;22407;42.820;23.374;2022-07-18T08:15:50;5.22;;;1.30;;
31872;SDS011;22407;42.820;23.374;2022-07-18T08:18:19;4.87;;;1.27;;
31872;SDS011;22407;42.820;23.374;2022-07-18T08:20:48;4.92;;;1.40;;
31872;SDS011;22407;42.820;23.374;2022-07-18T08:23:17;4.95;;;1.42;;
31872;SDS011;22407;42.820;23.374;2022-07-18T08:25:46;5.42;;;1.32;;
31872;SDS011;22407;42.820;23.374;2022-07-18T08:28:15;6.42;;;1.45;;
31872;SDS011;22407;42.820;23.374;2022-07-18T08:30:44;6.53;;;1.50;;
31872;SDS011;22407;42.820;23.374;2022-07-18T08:33:13;5.08;;;1.40;;
31872;SDS011;22407;42.820;23.374;2022-07-18T08:35:42;5.33;;;1.75;;
31872;SDS011;22407;42.820;23.374;2022-07-18T08:38:11;5.87;;;2.22;;
31872;SDS011;22407;42.820;23.374;2022-07-18T08:40:40;6.28;;;2.00;;
31872;SDS011;22407;42.820;23.374;2022-07-18T08:43:09;5.90;;;1.90;;
31872;SDS011;22407;42.820;23.374;2022-07-18T08:45:39;6.03;;;1.90;;
31872;SDS011;22407;42.820;23.374;2022-07-18T08:48:13;5.45;;;2.02;;
31872;SDS011;22407;42.820;23.374;2022-07-18T08:50:47;6.35;;;2.00;;
31872;SDS011;22407;42.820;23.374;2022-07-18T08:53:18;5.55;;;2.00;;
31872;SDS011;22407;42.820;23.374;2022-07-18T08:55:48;5.57;;;1.70;;
31872;SDS011;22407;42.820;23.374;2022-07-18T16:40:20;8.38;;;3.70;;
31872;SDS011;22407;42.820;23.374;2022-07-18T16:42:49;7.33;;;3.30;;
31872;SDS011;22407;42.820;23.374;2022-07-18T16:45:18;8.20;;;3.30;;
31872;SDS011;22407;42.820;23.374;2022-07-18T16:47:47;9.30;;;3.23;;
31872;SDS011;22407;42.820;23.374;2022-07-18T16:50:16;9.83;;;3.70;;
31872;SDS011;22407;42.820;23.374;2022-07-18T16:52:45;6.92;;;3.50;;
31872;SDS011;22407;42.820;23.374;2022-07-18T16:55:14;8.08;;;3.77;;
31872;SDS011;22407;42.820;23.374;2022-07-18T16:57:44;6.92;;;3.33;;
31872;SDS011;22407;42.820;23.374;2022-07-18T17:00:13;8.57;;;3.40;;
31872;SDS011;22407;42.820;23.374;2022-07-18T17:02:42;7.75;;;3.35;;
31872;SDS011;22407;42.820;23.374;2022-07-18T17:05:13;7.80;;;3.10;;
31872;SDS011;22407;42.820;23.374;2022-07-18T17:07:42;7.20;;;3.55;;
31872;SDS011;22407;42.820;23.374;2022-07-18T17:10:11;9.33;;;3.35;;
31872;SDS011;22407;42.820;23.374;2022-07-18T17:12:41;9.77;;;3.47;;
31872;SDS011;22407;42.820;23.374;2022-07-18T17:15:10;6.75;;;3.27;;
31872;SDS011;22407;42.820;23.374;2022-07-18T17:17:40;6.87;;;3.30;;
31872;SDS011;22407;42.820;23.374;2022-07-18T17:20:09;8.98;;;3.22;;
31872;SDS011;22407;42.820;23.374;2022-07-18T17:22:40;9.83;;;4.58;;
31872;SDS011;22407;42.820;23.374;2022-07-18T17:25:11;17.17;;;8.57;;
31872;SDS011;22407;42.820;23.374;2022-07-18T17:27:42;11.65;;;5.08;;
31872;SDS011;22407;42.820;23.374;2022-07-18T17:30:11;7.70;;;3.30;;
31872;SDS011;22407;42.820;23.374;2022-07-18T17:32:40;7.58;;;3.20;;
31872;SDS011;22407;42.820;23.374;2022-07-18T17:35:10;8.78;;;3.55;;
31872;SDS011;22407;42.820;23.374;2022-07-18T17:37:43;6.50;;;3.23;;
31872;SDS011;22407;42.820;23.374;2022-07-18T17:40:13;7.00;;;3.30;;
31872;SDS011;22407;42.820;23.374;2022-07-18T17:42:43;18.20;;;10.78;;
31872;SDS011;22407;42.820;23.374;2022-07-18T17:45:12;24.35;;;14.25;;
31872;SDS011;22407;42.820;23.374;2022-07-18T17:47:41;13.48;;;7.15;;
31872;SDS011;22407;42.820;23.374;2022-07-18T17:50:10;7.83;;;4.03;;
31872;SDS011;22407;42.820;23.374;2022-07-18T17:52:40;7.17;;;3.70;;
31872;SDS011;22407;42.820;23.374;2022-07-18T17:55:09;6.95;;;3.50;;
31872;SDS011;22407;42.820;23.374;2022-07-18T17:57:38;7.15;;;3.50;;
31872;SDS011;22407;42.820;23.374;2022-07-18T18:00:08;6.60;;;3.58;;
31872;SDS011;22407;42.820;23.374;2022-07-18T18:02:38;7.33;;;3.40;;
31872;SDS011;22407;42.820;23.374;2022-07-18T18:05:08;7.50;;;3.52;;
31872;SDS011;22407;42.820;23.374;2022-07-18T18:07:38;8.10;;;3.22;;
31872;SDS011;22407;42.820;23.374;2022-07-18T18:10:09;8.15;;;3.40;;
31872;SDS011;22407;42.820;23.374;2022-07-18T18:12:38;6.58;;;3.33;;
31872;SDS011;22407;42.820;23.374;2022-07-18T18:15:07;9.83;;;2.80;;
31872;SDS011;22407;42.820;23.374;2022-07-18T18:17:37;7.22;;;3.15;;
31872;SDS011;22407;42.820;23.374;2022-07-18T18:20:06;6.87;;;3.33;;
31872;SDS011;22407;42.820;23.374;2022-07-18T18:22:35;7.08;;;3.12;;
31872;SDS011;22407;42.820;23.374;2022-07-18T18:25:05;7.65;;;3.00;;
31872;SDS011;22407;42.820;23.374;2022-07-18T18:27:35;9.23;;;3.03;;
31872;SDS011;22407;42.820;23.374;2022-07-18T18:30:05;7.67;;;2.90;;
31872;SDS011;22407;42.820;23.374;2022-07-18T18:32:40;6.80;;;3.30;;
31872;SDS011;22407;42.820;23.374;2022-07-18T18:35:09;6.45;;;3.20;;
31872;SDS011;22407;42.820;23.374;2022-07-18T18:37:39;6.80;;;3.05;;
31872;SDS011;22407;42.820;23.374;2022-07-18T18:40:08;6.93;;;2.97;;
31872;SDS011;22407;42.820;23.374;2022-07-18T18:42:37;6.75;;;3.12;;
31872;SDS011;22407;42.820;23.374;2022-07-18T18:45:06;8.35;;;3.00;;
31872;SDS011;22407;42.820;23.374;2022-07-18T18:47:37;6.12;;;2.70;;
31872;SDS011;22407;42.820;23.374;2022-07-18T18:50:07;6.12;;;3.00;;
31872;SDS011;22407;42.820;23.374;2022-07-18T18:52:37;7.37;;;2.70;;
31872;SDS011;22407;42.820;23.374;2022-07-18T18:55:09;6.67;;;3.00;;
31872;SDS011;22407;42.820;23.374;2022-07-18T18:57:40;6.60;;;3.08;;
31872;SDS011;22407;42.820;23.374;2022-07-18T19:00:10;6.65;;;3.30;;
31872;SDS011;22407;42.820;23.374;2022-07-18T19:02:42;6.25;;;2.90;;
31872;SDS011;22407;42.820;23.374;2022-07-18T19:05:15;5.70;;;2.70;;
31872;SDS011;22407;42.820;23.374;2022-07-18T19:07:45;5.92;;;2.90;;
31872;SDS011;22407;42.820;23.374;2022-07-18T19:10:15;6.87;;;2.85;;
31872;SDS011;22407;42.820;23.374;2022-07-18T19:12:45;6.50;;;3.15;;
31872;SDS011;22407;42.820;23.374;2022-07-18T19:15:15;6.55;;;2.83;;
31872;SDS011;22407;42.820;23.374;2022-07-18T19:17:45;7.00;;;3.10;;
31872;SDS011;22407;42.820;23.374;2022-07-18T19:20:14;6.62;;;3.00;;
31872;SDS011;22407;42.820;23.374;2022-07-18T19:22:43;6.53;;;2.80;;
31872;SDS011;22407;42.820;23.374;2022-07-18T19:25:12;10.98;;;3.05;;
31872;SDS011;22407;42.820;23.374;2022-07-18T19:27:41;7.95;;;2.90;;
31872;SDS011;22407;42.820;23.374;2022-07-18T19:30:09;6.87;;;2.83;;
31872;SDS011;22407;42.820;23.374;2022-07-18T19:32:38;6.60;;;3.00;;
31872;SDS011;22407;42.820;23.374;2022-07-18T19:35:08;8.15;;;3.37;;
31872;SDS011;22407;42.820;23.374;2022-07-18T19:37:37;6.97;;;3.10;;
31872;SDS011;22407;42.820;23.374;2022-07-18T19:40:06;7.42;;;2.80;;
31872;SDS011;22407;42.820;23.374;2022-07-18T19:42:36;6.90;;;3.00;;
31872;SDS011;22407;42.820;23.374;2022-07-18T19:45:05;7.37;;;2.90;;
31872;SDS011;22407;42.820;23.374;2022-07-18T19:47:34;8.23;;;3.00;;
31872;SDS011;22407;42.820;23.374;2022-07-18T19:50:03;10.15;;;2.83;;
31872;SDS011;22407;42.820;23.374;2022-07-18T19:52:33;6.75;;;2.70;;
31872;SDS011;22407;42.820;23.374;2022-07-18T19:55:02;8.50;;;2.80;;
31872;SDS011;22407;42.820;23.374;2022-07-18T19:57:31;5.67;;;2.20;;
31872;SDS011;22407;42.820;23.374;2022-07-18T20:00:01;6.47;;;2.50;;
31872;SDS011;22407;42.820;23.374;2022-07-18T20:02:31;7.12;;;2.45;;
31872;SDS011;22407;42.820;23.374;2022-07-18T20:05:00;5.72;;;2.58;;
31872;SDS011;22407;42.820;23.374;2022-07-18T20:07:29;6.23;;;2.83;;
31872;SDS011;22407;42.820;23.374;2022-07-18T20:09:58;6.40;;;2.60;;
31872;SDS011;22407;42.820;23.374;2022-07-18T20:12:27;6.67;;;2.65;;
31872;SDS011;22407;42.820;23.374;2022-07-18T20:14:56;6.00;;;2.77;;
31872;SDS011;22407;42.820;23.374;2022-07-18T20:17:25;6.30;;;2.90;;
31872;SDS011;22407;42.820;23.374;2022-07-18T20:19:54;6.37;;;2.97;;
31872;SDS011;22407;42.820;23.374;2022-07-18T20:22:23;8.80;;;2.80;;
31872;SDS011;22407;42.820;23.374;2022-07-18T20:24:52;9.93;;;3.25;;
31872;SDS011;22407;42.820;23.374;2022-07-18T20:27:21;7.35;;;3.40;;
31872;SDS011;22407;42.820;23.374;2022-07-18T20:29:50;9.45;;;3.50;;
31872;SDS011;22407;42.820;23.374;2022-07-18T20:32:19;8.40;;;3.37;;
31872;SDS011;22407;42.820;23.374;2022-07-18T20:34:48;7.62;;;3.20;;
31872;SDS011;22407;42.820;23.374;2022-07-18T20:37:17;8.68;;;3.02;;
31872;SDS011;22407;42.820;23.374;2022-07-18T20:39:46;7.12;;;3.10;;
31872;SDS011;22407;42.820;23.374;2022-07-18T20:42:14;8.75;;;3.45;;
31872;SDS011;22407;42.820;23.374;2022-07-18T20:44:43;8.47;;;3.30;;
31872;SDS011;22407;42.820;23.374;2022-07-18T20:47:12;7.30;;;3.00;;
31872;SDS011;22407;42.820;23.374;2022-07-18T20:49:41;7.87;;;3.45;;
31872;SDS011;22407;42.820;23.374;2022-07-18T20:52:10;7.03;;;3.08;;
31872;SDS011;22407;42.820;23.374;2022-07-18T20:54:39;7.62;;;3.02;;
31872;SDS011;22407;42.820;23.374;2022-07-18T20:57:08;8.03;;;3.10;;
31872;SDS011;22407;42.820;23.374;2022-07-18T20:59:37;7.22;;;3.12;;
31872;SDS011;22407;42.820;23.374;2022-07-18T21:02:05;7.78;;;3.25;;
31872;SDS011;22407;42.820;23.374;2022-07-18T21:04:36;8.45;;;3.33;;
31872;SDS011;22407;42.820;23.374;2022-07-18T21:07:05;7.53;;;2.90;;
31872;SDS011;22407;42.820;23.374;2022-07-18T21:09:34;7.23;;;2.93;;
31872;SDS011;22407;42.820;23.374;2022-07-18T21:12:03;7.37;;;2.95;;
31872;SDS011;22407;42.820;23.374;2022-07-18T21:14:31;7.60;;;3.10;;
31872;SDS011;22407;42.820;23.374;2022-07-18T21:17:19;6.78;;;3.05;;
31872;SDS011;22407;42.820;23.374;2022-07-18T21:19:48;6.58;;;2.87;;
31872;SDS011;22407;42.820;23.374;2022-07-18T21:22:17;6.13;;;2.90;;
31872;SDS011;22407;42.820;23.374;2022-07-18T21:24:46;8.20;;;2.90;;
31872;SDS011;22407;42.820;23.374;2022-07-18T21:27:17;6.78;;;2.70;;
31872;SDS011;22407;42.820;23.374;2022-07-18T21:29:47;6.78;;;3.15;;
31872;SDS011;22407;42.820;23.374;2022-07-18T21:32:17;6.92;;;3.12;;
31872;SDS011;22407;42.820;23.374;2022-07-18T21:34:46;7.43;;;3.17;;
31872;SDS011;22407;42.820;23.374;2022-07-18T21:37:15;6.70;;;2.92;;
31872;SDS011;22407;42.820;23.374;2022-07-18T21:39:45;7.25;;;2.37;;
31872;SDS011;22407;42.820;23.374;2022-07-18T21:42:13;7.80;;;2.70;;
31872;SDS011;22407;42.820;23.374;2022-07-18T21:44:43;6.00;;;2.60;;
31872;SDS011;22407;42.820;23.374;2022-07-18T21:47:12;7.20;;;2.60;;
31872;SDS011;22407;42.820;23.374;2022-07-18T21:49:41;7.78;;;2.87;;
31872;SDS011;22407;42.820;23.374;2022-07-18T21:52:10;7.08;;;2.58;;
31872;SDS011;22407;42.820;23.374;2022-07-18T21:54:39;6.45;;;3.02;;
31872;SDS011;22407;42.820;23.374;2022-07-18T21:57:08;6.15;;;2.60;;
31872;SDS011;22407;42.820;23.374;2022-07-18T21:59:37;6.40;;;2.80;;
31872;SDS011;22407;42.820;23.374;2022-07-18T22:02:06;5.95;;;2.55;;
31872;SDS011;22407;42.820;23.374;2022-07-18T22:04:35;6.12;;;3.17;;
31872;SDS011;22407;42.820;23.374;2022-07-18T22:07:04;6.58;;;2.70;;
31872;SDS011;22407;42.820;23.374;2022-07-18T22:09:33;8.08;;;2.90;;
31872;SDS011;22407;42.820;23.374;2022-07-18T22:12:02;6.30;;;2.60;;
31872;SDS011;22407;42.820;23.374;2022-07-18T22:14:31;6.05;;;2.55;;
31872;SDS011;22407;42.820;23.374;2022-07-18T22:17:01;6.92;;;2.87;;
31872;SDS011;22407;42.820;23.374;2022-07-18T22:19:31;7.90;;;3.10;;
31872;SDS011;22407;42.820;23.374;2022-07-18T22:22:01;7.95;;;2.80;;
31872;SDS011;22407;42.820;23.374;2022-07-18T22:24:30;6.50;;;2.87;;
31872;SDS011;22407;42.820;23.374;2022-07-18T22:26:59;6.03;;;2.92;;